sensor_id;sensor_type;location;lat;lon;timestamp;P1;durP1;ratioP1;P2;durP2;ratioP2
82930;SDS011;72705;53.346;10.248;2023-11-21T00:00:14;75.18;;;15.70;;
82930;SDS011;72705;53.346;10.248;2023-11-21T00:02:40;65.80;;;16.73;;
82930;SDS011;72705;53.346;10.248;2023-11-21T00:05:10;78.25;;;17.40;;
82930;SDS011;72705;53.346;10.248;2023-11-21T00:07:36;75.75;;;17.38;;
82930;SDS011;72705;53.346;10.248;2023-11-21T00:10:02;55.95;;;13.85;;
82930;SDS011;72705;53.346;10.248;2023-11-21T00:12:30;63.35;;;14.73;;
82930;SDS011;72705;53.346;10.248;2023-11-21T00:14:56;42.90;;;12.10;;
82930;SDS011;72705;53.346;10.248;2023-11-21T00:17:21;37.88;;;12.15;;
82930;SDS011;72705;53.346;10.248;2023-11-21T00:19:47;50.13;;;13.75;;
82930;SDS011;72705;53.346;10.248;2023-11-21T00:22:12;53.47;;;14.17;;
82930;SDS011;72705;53.346;10.248;2023-11-21T00:24:37;48.65;;;12.93;;
82930;SDS011;72705;53.346;10.248;2023-11-21T00:27:03;52.70;;;14.48;;
82930;SDS011;72705;53.346;10.248;2023-11-21T00:29:28;49.92;;;13.65;;
82930;SDS011;72705;53.346;10.248;2023-11-21T00:31:54;50.17;;;13.43;;
82930;SDS011;72705;53.346;10.248;2023-11-21T00:34:19;49.42;;;14.48;;
82930;SDS011;72705;53.346;10.248;2023-11-21T00:36:45;47.42;;;12.43;;
82930;SDS011;72705;53.346;10.248;2023-11-21T00:39:10;53.70;;;13.47;;
82930;SDS011;72705;53.346;10.248;2023-11-21T00:41:36;41.45;;;11.93;;
82930;SDS011;72705;53.346;10.248;2023-11-21T00:44:02;41.83;;;13.00;;
82930;SDS011;72705;53.346;10.248;2023-11-21T00:46:27;43.65;;;11.25;;
82930;SDS011;72705;53.346;10.248;2023-11-21T00:48:54;47.97;;;13.00;;
82930;SDS011;72705;53.346;10.248;2023-11-21T00:51:20;51.90;;;13.65;;
82930;SDS011;72705;53.346;10.248;2023-11-21T00:53:45;51.83;;;13.77;;
82930;SDS011;72705;53.346;10.248;2023-11-21T00:56:11;49.45;;;13.43;;
82930;SDS011;72705;53.346;10.248;2023-11-21T00:58:37;52.53;;;15.23;;
82930;SDS011;72705;53.346;10.248;2023-11-21T01:01:02;46.33;;;13.67;;
82930;SDS011;72705;53.346;10.248;2023-11-21T01:03:28;54.92;;;15.05;;
82930;SDS011;72705;53.346;10.248;2023-11-21T01:05:54;56.50;;;17.13;;
82930;SDS011;72705;53.346;10.248;2023-11-21T01:08:20;66.65;;;17.67;;
82930;SDS011;72705;53.346;10.248;2023-11-21T01:10:46;71.40;;;19.45;;
82930;SDS011;72705;53.346;10.248;2023-11-21T01:13:11;68.90;;;21.30;;
82930;SDS011;72705;53.346;10.248;2023-11-21T01:15:37;66.78;;;20.60;;
82930;SDS011;72705;53.346;10.248;2023-11-21T01:18:02;73.50;;;22.25;;
82930;SDS011;72705;53.346;10.248;2023-11-21T01:20:30;67.97;;;21.40;;
82930;SDS011;72705;53.346;10.248;2023-11-21T01:22:56;84.10;;;24.20;;
82930;SDS011;72705;53.346;10.248;2023-11-21T01:25:21;90.37;;;22.83;;
82930;SDS011;72705;53.346;10.248;2023-11-21T01:27:48;62.38;;;21.38;;
82930;SDS011;72705;53.346;10.248;2023-11-21T01:30:14;65.90;;;20.17;;
82930;SDS011;72705;53.346;10.248;2023-11-21T01:32:39;57.10;;;20.25;;
82930;SDS011;72705;53.346;10.248;2023-11-21T01:35:05;55.42;;;18.48;;
82930;SDS011;72705;53.346;10.248;2023-11-21T01:37:31;57.03;;;20.45;;
82930;SDS011;72705;53.346;10.248;2023-11-21T01:39:59;57.92;;;20.35;;
82930;SDS011;72705;53.346;10.248;2023-11-21T01:42:26;71.47;;;18.60;;
82930;SDS011;72705;53.346;10.248;2023-11-21T01:44:52;60.83;;;19.17;;
82930;SDS011;72705;53.346;10.248;2023-11-21T01:47:19;65.65;;;19.67;;
82930;SDS011;72705;53.346;10.248;2023-11-21T01:49:46;56.35;;;17.88;;
82930;SDS011;72705;53.346;10.248;2023-11-21T01:52:12;72.20;;;21.50;;
82930;SDS011;72705;53.346;10.248;2023-11-21T01:54:38;71.93;;;21.33;;
82930;SDS011;72705;53.346;10.248;2023-11-21T01:57:04;68.03;;;21.00;;
82930;SDS011;72705;53.346;10.248;2023-11-21T01:59:36;68.90;;;19.95;;
82930;SDS011;72705;53.346;10.248;2023-11-21T02:02:06;68.63;;;22.80;;
82930;SDS011;72705;53.346;10.248;2023-11-21T02:04:33;82.07;;;22.23;;
82930;SDS011;72705;53.346;10.248;2023-11-21T02:06:59;85.43;;;23.85;;
82930;SDS011;72705;53.346;10.248;2023-11-21T02:09:28;81.40;;;24.15;;
82930;SDS011;72705;53.346;10.248;2023-11-21T02:11:55;81.78;;;22.77;;
82930;SDS011;72705;53.346;10.248;2023-11-21T02:14:21;71.28;;;21.00;;
82930;SDS011;72705;53.346;10.248;2023-11-21T02:16:47;64.13;;;20.05;;
82930;SDS011;72705;53.346;10.248;2023-11-21T02:19:20;64.70;;;19.30;;
82930;SDS011;72705;53.346;10.248;2023-11-21T02:21:49;62.22;;;21.85;;
82930;SDS011;72705;53.346;10.248;2023-11-21T02:24:15;54.15;;;18.77;;
82930;SDS011;72705;53.346;10.248;2023-11-21T02:26:40;52.88;;;17.52;;
82930;SDS011;72705;53.346;10.248;2023-11-21T02:29:06;54.50;;;19.23;;
82930;SDS011;72705;53.346;10.248;2023-11-21T02:31:35;53.03;;;18.70;;
82930;SDS011;72705;53.346;10.248;2023-11-21T02:34:02;50.28;;;17.13;;
82930;SDS011;72705;53.346;10.248;2023-11-21T02:36:28;56.75;;;18.23;;
82930;SDS011;72705;53.346;10.248;2023-11-21T02:38:53;49.80;;;17.17;;
82930;SDS011;72705;53.346;10.248;2023-11-21T02:41:18;52.23;;;17.60;;
82930;SDS011;72705;53.346;10.248;2023-11-21T02:43:44;52.60;;;17.83;;
82930;SDS011;72705;53.346;10.248;2023-11-21T02:46:09;56.53;;;18.42;;
82930;SDS011;72705;53.346;10.248;2023-11-21T02:48:34;46.28;;;16.67;;
82930;SDS011;72705;53.346;10.248;2023-11-21T02:51:01;54.10;;;18.33;;
82930;SDS011;72705;53.346;10.248;2023-11-21T02:53:26;48.15;;;16.88;;
82930;SDS011;72705;53.346;10.248;2023-11-21T02:55:51;42.05;;;14.95;;
82930;SDS011;72705;53.346;10.248;2023-11-21T02:58:17;41.22;;;14.77;;
82930;SDS011;72705;53.346;10.248;2023-11-21T03:00:42;42.70;;;15.23;;
82930;SDS011;72705;53.346;10.248;2023-11-21T03:03:07;37.60;;;15.23;;
82930;SDS011;72705;53.346;10.248;2023-11-21T03:05:34;43.50;;;15.13;;
82930;SDS011;72705;53.346;10.248;2023-11-21T03:08:00;42.30;;;14.07;;
82930;SDS011;72705;53.346;10.248;2023-11-21T03:10:26;44.35;;;15.48;;
82930;SDS011;72705;53.346;10.248;2023-11-21T03:12:52;39.38;;;14.25;;
82930;SDS011;72705;53.346;10.248;2023-11-21T03:15:18;49.30;;;15.85;;
82930;SDS011;72705;53.346;10.248;2023-11-21T03:17:44;48.80;;;16.13;;
82930;SDS011;72705;53.346;10.248;2023-11-21T03:20:09;48.67;;;16.23;;
82930;SDS011;72705;53.346;10.248;2023-11-21T03:22:36;43.20;;;14.25;;
82930;SDS011;72705;53.346;10.248;2023-11-21T03:25:03;41.10;;;15.52;;
82930;SDS011;72705;53.346;10.248;2023-11-21T03:27:30;42.20;;;15.07;;
82930;SDS011;72705;53.346;10.248;2023-11-21T03:29:55;43.93;;;15.37;;
82930;SDS011;72705;53.346;10.248;2023-11-21T03:32:20;38.88;;;13.80;;
82930;SDS011;72705;53.346;10.248;2023-11-21T03:34:57;43.83;;;15.87;;
82930;SDS011;72705;53.346;10.248;2023-11-21T03:37:23;50.88;;;15.30;;
82930;SDS011;72705;53.346;10.248;2023-11-21T03:39:50;38.85;;;14.88;;
82930;SDS011;72705;53.346;10.248;2023-11-21T03:42:16;36.90;;;13.40;;
82930;SDS011;72705;53.346;10.248;2023-11-21T03:44:41;39.20;;;14.68;;
82930;SDS011;72705;53.346;10.248;2023-11-21T03:47:07;47.65;;;16.38;;
82930;SDS011;72705;53.346;10.248;2023-11-21T03:49:32;38.77;;;15.10;;
82930;SDS011;72705;53.346;10.248;2023-11-21T03:51:58;39.70;;;14.50;;
82930;SDS011;72705;53.346;10.248;2023-11-21T03:54:24;48.40;;;15.57;;
82930;SDS011;72705;53.346;10.248;2023-11-21T03:56:49;45.00;;;16.10;;
82930;SDS011;72705;53.346;10.248;2023-11-21T03:59:14;47.93;;;17.87;;
82930;SDS011;72705;53.346;10.248;2023-11-21T04:01:39;43.20;;;15.87;;
82930;SDS011;72705;53.346;10.248;2023-11-21T04:04:05;40.37;;;16.43;;
82930;SDS011;72705;53.346;10.248;2023-11-21T04:06:30;44.23;;;15.53;;
82930;SDS011;72705;53.346;10.248;2023-11-21T04:08:57;37.42;;;15.23;;
82930;SDS011;72705;53.346;10.248;2023-11-21T04:11:23;41.30;;;15.40;;
82930;SDS011;72705;53.346;10.248;2023-11-21T04:13:48;38.93;;;15.80;;
82930;SDS011;72705;53.346;10.248;2023-11-21T04:16:14;44.93;;;16.17;;
82930;SDS011;72705;53.346;10.248;2023-11-21T04:18:39;40.37;;;14.87;;
82930;SDS011;72705;53.346;10.248;2023-11-21T04:21:05;33.78;;;14.15;;
82930;SDS011;72705;53.346;10.248;2023-11-21T04:23:31;43.17;;;15.93;;
82930;SDS011;72705;53.346;10.248;2023-11-21T04:28:27;45.22;;;16.90;;
82930;SDS011;72705;53.346;10.248;2023-11-21T04:30:52;40.30;;;15.63;;
82930;SDS011;72705;53.346;10.248;2023-11-21T04:33:18;44.38;;;15.02;;
82930;SDS011;72705;53.346;10.248;2023-11-21T04:35:43;52.22;;;18.65;;
82930;SDS011;72705;53.346;10.248;2023-11-21T04:38:10;40.70;;;16.67;;
82930;SDS011;72705;53.346;10.248;2023-11-21T04:40:35;45.35;;;17.13;;
82930;SDS011;72705;53.346;10.248;2023-11-21T04:43:00;37.38;;;15.20;;
82930;SDS011;72705;53.346;10.248;2023-11-21T04:45:26;44.05;;;15.60;;
82930;SDS011;72705;53.346;10.248;2023-11-21T04:47:51;44.55;;;15.35;;
82930;SDS011;72705;53.346;10.248;2023-11-21T04:50:17;41.05;;;15.50;;
82930;SDS011;72705;53.346;10.248;2023-11-21T04:52:43;42.67;;;15.93;;
82930;SDS011;72705;53.346;10.248;2023-11-21T04:55:09;49.03;;;15.73;;
82930;SDS011;72705;53.346;10.248;2023-11-21T04:57:35;42.17;;;16.23;;
82930;SDS011;72705;53.346;10.248;2023-11-21T05:00:01;45.55;;;15.98;;
82930;SDS011;72705;53.346;10.248;2023-11-21T05:02:31;40.00;;;14.32;;
82930;SDS011;72705;53.346;10.248;2023-11-21T05:04:59;44.97;;;15.23;;
82930;SDS011;72705;53.346;10.248;2023-11-21T05:07:25;45.10;;;15.80;;
82930;SDS011;72705;53.346;10.248;2023-11-21T05:09:53;43.88;;;15.27;;
82930;SDS011;72705;53.346;10.248;2023-11-21T05:12:21;44.20;;;17.23;;
82930;SDS011;72705;53.346;10.248;2023-11-21T05:14:48;46.33;;;15.95;;
82930;SDS011;72705;53.346;10.248;2023-11-21T05:17:13;44.75;;;16.77;;
82930;SDS011;72705;53.346;10.248;2023-11-21T05:19:39;43.03;;;14.23;;
82930;SDS011;72705;53.346;10.248;2023-11-21T05:22:05;42.70;;;15.88;;
82930;SDS011;72705;53.346;10.248;2023-11-21T05:24:31;42.40;;;14.82;;
82930;SDS011;72705;53.346;10.248;2023-11-21T05:26:56;45.30;;;16.90;;
82930;SDS011;72705;53.346;10.248;2023-11-21T05:29:21;42.30;;;15.27;;
82930;SDS011;72705;53.346;10.248;2023-11-21T05:31:48;37.33;;;14.35;;
82930;SDS011;72705;53.346;10.248;2023-11-21T05:34:14;37.17;;;15.07;;
82930;SDS011;72705;53.346;10.248;2023-11-21T05:36:42;40.28;;;15.77;;
82930;SDS011;72705;53.346;10.248;2023-11-21T05:39:09;41.40;;;15.23;;
82930;SDS011;72705;53.346;10.248;2023-11-21T05:41:37;44.22;;;14.43;;
82930;SDS011;72705;53.346;10.248;2023-11-21T05:44:02;42.75;;;15.07;;
82930;SDS011;72705;53.346;10.248;2023-11-21T05:46:28;38.95;;;15.27;;
82930;SDS011;72705;53.346;10.248;2023-11-21T05:48:53;38.83;;;15.47;;
82930;SDS011;72705;53.346;10.248;2023-11-21T05:51:21;37.53;;;15.10;;
82930;SDS011;72705;53.346;10.248;2023-11-21T05:53:48;42.42;;;14.95;;
82930;SDS011;72705;53.346;10.248;2023-11-21T05:56:13;37.20;;;14.25;;
82930;SDS011;72705;53.346;10.248;2023-11-21T05:58:40;40.35;;;14.20;;
82930;SDS011;72705;53.346;10.248;2023-11-21T06:01:05;35.40;;;13.82;;
82930;SDS011;72705;53.346;10.248;2023-11-21T06:03:38;42.35;;;14.02;;
82930;SDS011;72705;53.346;10.248;2023-11-21T06:06:03;37.17;;;15.20;;
82930;SDS011;72705;53.346;10.248;2023-11-21T06:08:29;44.38;;;16.80;;
82930;SDS011;72705;53.346;10.248;2023-11-21T06:10:55;42.30;;;14.00;;
82930;SDS011;72705;53.346;10.248;2023-11-21T06:13:20;43.17;;;17.67;;
82930;SDS011;72705;53.346;10.248;2023-11-21T06:18:14;42.00;;;14.83;;
82930;SDS011;72705;53.346;10.248;2023-11-21T06:20:39;43.50;;;16.73;;
82930;SDS011;72705;53.346;10.248;2023-11-21T06:23:05;49.40;;;16.83;;
82930;SDS011;72705;53.346;10.248;2023-11-21T06:25:33;46.40;;;17.08;;
82930;SDS011;72705;53.346;10.248;2023-11-21T06:28:01;46.75;;;16.42;;
82930;SDS011;72705;53.346;10.248;2023-11-21T06:30:26;41.10;;;15.65;;
82930;SDS011;72705;53.346;10.248;2023-11-21T06:32:53;48.17;;;15.40;;
82930;SDS011;72705;53.346;10.248;2023-11-21T06:35:18;42.80;;;14.60;;
82930;SDS011;72705;53.346;10.248;2023-11-21T06:37:44;40.33;;;15.40;;
82930;SDS011;72705;53.346;10.248;2023-11-21T06:40:13;42.13;;;15.48;;
82930;SDS011;72705;53.346;10.248;2023-11-21T06:42:43;43.33;;;15.40;;
82930;SDS011;72705;53.346;10.248;2023-11-21T06:45:09;37.28;;;14.02;;
82930;SDS011;72705;53.346;10.248;2023-11-21T06:47:35;45.53;;;15.70;;
82930;SDS011;72705;53.346;10.248;2023-11-21T06:50:03;41.63;;;15.20;;
82930;SDS011;72705;53.346;10.248;2023-11-21T06:52:29;41.33;;;15.30;;
82930;SDS011;72705;53.346;10.248;2023-11-21T06:54:55;39.10;;;15.38;;
82930;SDS011;72705;53.346;10.248;2023-11-21T06:57:24;39.63;;;15.30;;
82930;SDS011;72705;53.346;10.248;2023-11-21T06:59:50;38.40;;;15.15;;
82930;SDS011;72705;53.346;10.248;2023-11-21T07:02:19;43.72;;;15.25;;
82930;SDS011;72705;53.346;10.248;2023-11-21T07:04:45;40.95;;;16.25;;
82930;SDS011;72705;53.346;10.248;2023-11-21T07:07:12;40.78;;;16.55;;
82930;SDS011;72705;53.346;10.248;2023-11-21T07:09:39;42.13;;;15.23;;
82930;SDS011;72705;53.346;10.248;2023-11-21T07:12:04;48.03;;;17.75;;
82930;SDS011;72705;53.346;10.248;2023-11-21T07:14:32;46.88;;;16.58;;
82930;SDS011;72705;53.346;10.248;2023-11-21T07:17:03;47.33;;;17.33;;
82930;SDS011;72705;53.346;10.248;2023-11-21T07:19:32;39.45;;;14.80;;
82930;SDS011;72705;53.346;10.248;2023-11-21T07:21:59;43.67;;;16.27;;
82930;SDS011;72705;53.346;10.248;2023-11-21T07:24:24;46.92;;;18.10;;
82930;SDS011;72705;53.346;10.248;2023-11-21T07:26:50;46.30;;;15.50;;
82930;SDS011;72705;53.346;10.248;2023-11-21T07:29:15;51.13;;;17.40;;
82930;SDS011;72705;53.346;10.248;2023-11-21T07:31:40;50.63;;;18.20;;
82930;SDS011;72705;53.346;10.248;2023-11-21T07:34:08;45.78;;;16.02;;
82930;SDS011;72705;53.346;10.248;2023-11-21T07:36:34;43.95;;;15.85;;
82930;SDS011;72705;53.346;10.248;2023-11-21T07:38:59;46.33;;;15.65;;
82930;SDS011;72705;53.346;10.248;2023-11-21T07:41:25;49.53;;;17.70;;
82930;SDS011;72705;53.346;10.248;2023-11-21T07:43:50;41.53;;;15.73;;
82930;SDS011;72705;53.346;10.248;2023-11-21T07:46:20;41.80;;;16.53;;
82930;SDS011;72705;53.346;10.248;2023-11-21T07:48:46;45.05;;;17.02;;
82930;SDS011;72705;53.346;10.248;2023-11-21T07:51:11;46.53;;;16.07;;
82930;SDS011;72705;53.346;10.248;2023-11-21T07:53:42;44.35;;;18.13;;
82930;SDS011;72705;53.346;10.248;2023-11-21T07:56:08;56.75;;;22.58;;
82930;SDS011;72705;53.346;10.248;2023-11-21T07:58:34;37.70;;;15.38;;
82930;SDS011;72705;53.346;10.248;2023-11-21T08:01:05;39.45;;;16.38;;
82930;SDS011;72705;53.346;10.248;2023-11-21T08:03:30;34.25;;;13.27;;
82930;SDS011;72705;53.346;10.248;2023-11-21T08:05:59;36.40;;;13.02;;
82930;SDS011;72705;53.346;10.248;2023-11-21T08:10:50;35.75;;;14.95;;
82930;SDS011;72705;53.346;10.248;2023-11-21T08:13:25;44.20;;;15.43;;
82930;SDS011;72705;53.346;10.248;2023-11-21T08:15:55;43.90;;;16.70;;
82930;SDS011;72705;53.346;10.248;2023-11-21T08:18:28;40.80;;;15.45;;
82930;SDS011;72705;53.346;10.248;2023-11-21T08:20:54;35.67;;;14.52;;
82930;SDS011;72705;53.346;10.248;2023-11-21T08:23:20;40.50;;;15.18;;
82930;SDS011;72705;53.346;10.248;2023-11-21T08:25:45;42.38;;;15.43;;
82930;SDS011;72705;53.346;10.248;2023-11-21T08:28:11;44.97;;;16.95;;
82930;SDS011;72705;53.346;10.248;2023-11-21T08:30:39;45.13;;;15.57;;
82930;SDS011;72705;53.346;10.248;2023-11-21T08:33:06;38.38;;;16.23;;
82930;SDS011;72705;53.346;10.248;2023-11-21T08:35:33;40.78;;;15.70;;
82930;SDS011;72705;53.346;10.248;2023-11-21T08:37:59;47.10;;;17.77;;
82930;SDS011;72705;53.346;10.248;2023-11-21T08:40:24;42.40;;;15.63;;
82930;SDS011;72705;53.346;10.248;2023-11-21T08:42:52;46.28;;;17.15;;
82930;SDS011;72705;53.346;10.248;2023-11-21T08:47:47;42.53;;;16.83;;
82930;SDS011;72705;53.346;10.248;2023-11-21T08:50:13;38.65;;;16.08;;
82930;SDS011;72705;53.346;10.248;2023-11-21T08:52:44;39.58;;;17.75;;
82930;SDS011;72705;53.346;10.248;2023-11-21T08:55:12;40.13;;;14.38;;
82930;SDS011;72705;53.346;10.248;2023-11-21T08:57:40;41.40;;;15.80;;
82930;SDS011;72705;53.346;10.248;2023-11-21T09:00:13;42.97;;;16.35;;
82930;SDS011;72705;53.346;10.248;2023-11-21T09:02:41;39.22;;;14.13;;
82930;SDS011;72705;53.346;10.248;2023-11-21T09:05:10;35.28;;;14.50;;
82930;SDS011;72705;53.346;10.248;2023-11-21T09:07:38;38.17;;;14.95;;
82930;SDS011;72705;53.346;10.248;2023-11-21T09:10:05;35.22;;;14.73;;
82930;SDS011;72705;53.346;10.248;2023-11-21T09:12:34;28.02;;;12.30;;
82930;SDS011;72705;53.346;10.248;2023-11-21T09:15:02;38.65;;;16.77;;
82930;SDS011;72705;53.346;10.248;2023-11-21T09:17:29;35.97;;;14.25;;
82930;SDS011;72705;53.346;10.248;2023-11-21T09:19:57;38.65;;;14.20;;
82930;SDS011;72705;53.346;10.248;2023-11-21T09:22:22;37.63;;;14.95;;
82930;SDS011;72705;53.346;10.248;2023-11-21T09:24:49;32.45;;;14.75;;
82930;SDS011;72705;53.346;10.248;2023-11-21T09:27:15;37.15;;;16.80;;
82930;SDS011;72705;53.346;10.248;2023-11-21T09:29:43;42.42;;;14.45;;
82930;SDS011;72705;53.346;10.248;2023-11-21T09:32:09;36.28;;;12.95;;
82930;SDS011;72705;53.346;10.248;2023-11-21T09:34:44;39.55;;;14.13;;
82930;SDS011;72705;53.346;10.248;2023-11-21T09:37:12;26.60;;;12.07;;
82930;SDS011;72705;53.346;10.248;2023-11-21T09:39:38;30.55;;;11.98;;
82930;SDS011;72705;53.346;10.248;2023-11-21T09:42:09;27.25;;;12.82;;
82930;SDS011;72705;53.346;10.248;2023-11-21T09:47:16;29.42;;;12.57;;
82930;SDS011;72705;53.346;10.248;2023-11-21T09:49:44;27.02;;;11.50;;
82930;SDS011;72705;53.346;10.248;2023-11-21T09:52:29;24.23;;;11.15;;
82930;SDS011;72705;53.346;10.248;2023-11-21T09:54:57;29.15;;;12.52;;
82930;SDS011;72705;53.346;10.248;2023-11-21T09:57:23;35.38;;;14.40;;
82930;SDS011;72705;53.346;10.248;2023-11-21T09:59:50;31.77;;;12.43;;
82930;SDS011;72705;53.346;10.248;2023-11-21T10:02:27;25.70;;;11.38;;
82930;SDS011;72705;53.346;10.248;2023-11-21T10:07:27;22.20;;;10.73;;
82930;SDS011;72705;53.346;10.248;2023-11-21T10:09:56;23.65;;;11.00;;
82930;SDS011;72705;53.346;10.248;2023-11-21T10:12:24;23.15;;;10.30;;
82930;SDS011;72705;53.346;10.248;2023-11-21T10:17:18;21.20;;;10.07;;
82930;SDS011;72705;53.346;10.248;2023-11-21T10:19:46;26.55;;;11.25;;
82930;SDS011;72705;53.346;10.248;2023-11-21T10:22:15;19.08;;;8.77;;
82930;SDS011;72705;53.346;10.248;2023-11-21T10:24:43;22.80;;;9.50;;
82930;SDS011;72705;53.346;10.248;2023-11-21T10:27:09;21.73;;;9.80;;
82930;SDS011;72705;53.346;10.248;2023-11-21T10:29:39;18.70;;;9.52;;
82930;SDS011;72705;53.346;10.248;2023-11-21T10:32:06;18.02;;;9.32;;
82930;SDS011;72705;53.346;10.248;2023-11-21T10:34:32;22.73;;;10.15;;
82930;SDS011;72705;53.346;10.248;2023-11-21T10:36:59;23.23;;;9.77;;
82930;SDS011;72705;53.346;10.248;2023-11-21T10:39:36;19.98;;;9.05;;
82930;SDS011;72705;53.346;10.248;2023-11-21T10:42:01;21.00;;;9.57;;
82930;SDS011;72705;53.346;10.248;2023-11-21T10:44:27;21.38;;;9.63;;
82930;SDS011;72705;53.346;10.248;2023-11-21T10:46:54;21.58;;;9.90;;
82930;SDS011;72705;53.346;10.248;2023-11-21T10:49:22;20.23;;;9.18;;
82930;SDS011;72705;53.346;10.248;2023-11-21T10:51:51;21.75;;;9.88;;
82930;SDS011;72705;53.346;10.248;2023-11-21T10:54:22;21.73;;;9.65;;
82930;SDS011;72705;53.346;10.248;2023-11-21T10:56:50;21.50;;;8.20;;
82930;SDS011;72705;53.346;10.248;2023-11-21T10:59:22;33.67;;;11.63;;
82930;SDS011;72705;53.346;10.248;2023-11-21T11:01:51;18.08;;;8.10;;
82930;SDS011;72705;53.346;10.248;2023-11-21T11:06:55;20.52;;;7.75;;
82930;SDS011;72705;53.346;10.248;2023-11-21T11:09:24;13.15;;;6.88;;
82930;SDS011;72705;53.346;10.248;2023-11-21T11:11:51;17.67;;;8.60;;
82930;SDS011;72705;53.346;10.248;2023-11-21T11:14:21;16.02;;;7.20;;
82930;SDS011;72705;53.346;10.248;2023-11-21T11:16:50;16.25;;;7.65;;
82930;SDS011;72705;53.346;10.248;2023-11-21T11:19:18;25.15;;;10.43;;
82930;SDS011;72705;53.346;10.248;2023-11-21T11:24:31;43.88;;;12.15;;
82930;SDS011;72705;53.346;10.248;2023-11-21T11:27:09;23.80;;;8.45;;
82930;SDS011;72705;53.346;10.248;2023-11-21T11:38:16;16.88;;;7.80;;
82930;SDS011;72705;53.346;10.248;2023-11-21T11:40:46;39.40;;;11.75;;
82930;SDS011;72705;53.346;10.248;2023-11-21T11:43:12;16.80;;;8.23;;
82930;SDS011;72705;53.346;10.248;2023-11-21T11:45:37;15.95;;;8.00;;
82930;SDS011;72705;53.346;10.248;2023-11-21T11:48:07;18.40;;;7.80;;
82930;SDS011;72705;53.346;10.248;2023-11-21T11:50:33;14.10;;;7.63;;
82930;SDS011;72705;53.346;10.248;2023-11-21T11:53:15;16.45;;;8.38;;
82930;SDS011;72705;53.346;10.248;2023-11-21T11:55:41;16.20;;;7.38;;
82930;SDS011;72705;53.346;10.248;2023-11-21T11:58:06;16.50;;;7.80;;
82930;SDS011;72705;53.346;10.248;2023-11-21T12:00:33;25.42;;;9.73;;
82930;SDS011;72705;53.346;10.248;2023-11-21T12:03:03;15.07;;;8.45;;
82930;SDS011;72705;53.346;10.248;2023-11-21T12:08:04;21.35;;;9.95;;
82930;SDS011;72705;53.346;10.248;2023-11-21T12:10:33;16.92;;;7.93;;
82930;SDS011;72705;53.346;10.248;2023-11-21T12:13:01;20.35;;;10.25;;
82930;SDS011;72705;53.346;10.248;2023-11-21T12:17:58;17.23;;;7.28;;
82930;SDS011;72705;53.346;10.248;2023-11-21T12:20:24;14.63;;;7.22;;
82930;SDS011;72705;53.346;10.248;2023-11-21T12:22:59;16.15;;;7.85;;
82930;SDS011;72705;53.346;10.248;2023-11-21T12:25:27;15.73;;;6.80;;
82930;SDS011;72705;53.346;10.248;2023-11-21T12:27:54;15.73;;;7.72;;
82930;SDS011;72705;53.346;10.248;2023-11-21T12:33:07;12.70;;;6.78;;
82930;SDS011;72705;53.346;10.248;2023-11-21T12:35:34;13.20;;;7.00;;
82930;SDS011;72705;53.346;10.248;2023-11-21T12:38:02;13.05;;;6.78;;
82930;SDS011;72705;53.346;10.248;2023-11-21T12:40:29;20.52;;;8.40;;
82930;SDS011;72705;53.346;10.248;2023-11-21T12:42:58;15.60;;;7.93;;
82930;SDS011;72705;53.346;10.248;2023-11-21T12:45:26;12.30;;;6.60;;
82930;SDS011;72705;53.346;10.248;2023-11-21T12:50:26;15.32;;;6.97;;
82930;SDS011;72705;53.346;10.248;2023-11-21T12:53:00;12.10;;;6.20;;
82930;SDS011;72705;53.346;10.248;2023-11-21T12:55:30;12.73;;;6.88;;
82930;SDS011;72705;53.346;10.248;2023-11-21T12:58:03;12.10;;;7.25;;
82930;SDS011;72705;53.346;10.248;2023-11-21T13:03:13;12.05;;;7.00;;
82930;SDS011;72705;53.346;10.248;2023-11-21T13:05:52;17.08;;;8.27;;
82930;SDS011;72705;53.346;10.248;2023-11-21T13:08:25;15.82;;;8.00;;
82930;SDS011;72705;53.346;10.248;2023-11-21T13:10:52;13.30;;;7.18;;
82930;SDS011;72705;53.346;10.248;2023-11-21T13:13:20;15.77;;;8.63;;
82930;SDS011;72705;53.346;10.248;2023-11-21T13:15:52;13.82;;;8.65;;
82930;SDS011;72705;53.346;10.248;2023-11-21T13:18:25;17.27;;;8.13;;
82930;SDS011;72705;53.346;10.248;2023-11-21T13:20:54;15.32;;;7.35;;
82930;SDS011;72705;53.346;10.248;2023-11-21T13:23:21;13.63;;;7.50;;
82930;SDS011;72705;53.346;10.248;2023-11-21T13:25:48;15.40;;;6.88;;
82930;SDS011;72705;53.346;10.248;2023-11-21T13:28:16;14.13;;;7.93;;
82930;SDS011;72705;53.346;10.248;2023-11-21T13:30:47;13.70;;;8.07;;
82930;SDS011;72705;53.346;10.248;2023-11-21T13:33:14;15.55;;;7.82;;
82930;SDS011;72705;53.346;10.248;2023-11-21T13:35:52;15.88;;;8.15;;
82930;SDS011;72705;53.346;10.248;2023-11-21T13:38:18;15.82;;;8.15;;
82930;SDS011;72705;53.346;10.248;2023-11-21T13:40:48;19.67;;;9.15;;
82930;SDS011;72705;53.346;10.248;2023-11-21T13:43:19;19.13;;;8.93;;
82930;SDS011;72705;53.346;10.248;2023-11-21T13:45:52;19.63;;;8.38;;
82930;SDS011;72705;53.346;10.248;2023-11-21T13:48:41;18.23;;;8.40;;
82930;SDS011;72705;53.346;10.248;2023-11-21T13:51:07;15.38;;;7.88;;
82930;SDS011;72705;53.346;10.248;2023-11-21T13:53:42;15.20;;;7.55;;
82930;SDS011;72705;53.346;10.248;2023-11-21T13:56:20;16.83;;;8.48;;
82930;SDS011;72705;53.346;10.248;2023-11-21T14:01:20;16.98;;;8.25;;
82930;SDS011;72705;53.346;10.248;2023-11-21T14:03:56;16.92;;;9.27;;
82930;SDS011;72705;53.346;10.248;2023-11-21T14:06:38;18.15;;;8.40;;
82930;SDS011;72705;53.346;10.248;2023-11-21T14:09:13;16.40;;;7.72;;
82930;SDS011;72705;53.346;10.248;2023-11-21T14:11:47;13.82;;;7.70;;
82930;SDS011;72705;53.346;10.248;2023-11-21T14:16:54;16.02;;;8.05;;
82930;SDS011;72705;53.346;10.248;2023-11-21T14:19:21;18.13;;;7.97;;
82930;SDS011;72705;53.346;10.248;2023-11-21T14:21:48;16.38;;;7.10;;
82930;SDS011;72705;53.346;10.248;2023-11-21T14:24:14;15.80;;;7.85;;
82930;SDS011;72705;53.346;10.248;2023-11-21T14:26:42;19.75;;;9.20;;
82930;SDS011;72705;53.346;10.248;2023-11-21T14:29:08;14.13;;;7.97;;
82930;SDS011;72705;53.346;10.248;2023-11-21T14:31:38;17.70;;;7.05;;
82930;SDS011;72705;53.346;10.248;2023-11-21T14:34:10;14.65;;;7.72;;
82930;SDS011;72705;53.346;10.248;2023-11-21T14:36:37;18.27;;;7.85;;
82930;SDS011;72705;53.346;10.248;2023-11-21T14:39:07;15.90;;;8.02;;
82930;SDS011;72705;53.346;10.248;2023-11-21T14:41:46;19.73;;;8.68;;
82930;SDS011;72705;53.346;10.248;2023-11-21T14:44:12;19.58;;;8.70;;
82930;SDS011;72705;53.346;10.248;2023-11-21T14:46:39;16.70;;;7.78;;
82930;SDS011;72705;53.346;10.248;2023-11-21T14:49:09;15.93;;;8.32;;
82930;SDS011;72705;53.346;10.248;2023-11-21T14:51:51;20.08;;;8.40;;
82930;SDS011;72705;53.346;10.248;2023-11-21T14:54:22;22.38;;;8.63;;
82930;SDS011;72705;53.346;10.248;2023-11-21T14:57:08;18.92;;;6.93;;
82930;SDS011;72705;53.346;10.248;2023-11-21T14:59:42;23.75;;;10.02;;
82930;SDS011;72705;53.346;10.248;2023-11-21T15:02:12;14.55;;;6.10;;